Time;durP1;ratioP1;P1;durP2;ratioP2;P2;SDS_P1;SDS_P2;PMS_P1;PMS_P2;Temp;Humidity;BMP_temperature;BMP_pressure;BME280_temperature;BME280_humidity;BME280_pressure;Samples;Min_cycle;Max_cycle;Signal;HPM_P1;HPM_P2
2024/01/26 00:01:32;;;;;;;62.80;32.60;;;12.20;99.90;;;;;;5068999;28;20040;-82
2024/01/26 00:03:57;;;;;;;63.08;33.40;;;11.60;99.90;;;;;;5061060;28;20832;-81
2024/01/26 00:06:24;;;;;;;62.70;31.55;;;13.00;99.90;;;;;;5045989;28;20036;-77
2024/01/26 00:08:50;;;;;;;67.30;34.63;;;12.40;99.90;;;;;;5053880;28;20048;-76
2024/01/26 00:11:17;;;;;;;64.38;33.10;;;12.70;99.90;;;;;;5051039;28;20408;-78
2024/01/26 00:13:43;;;;;;;67.25;34.20;;;13.10;99.90;;;;;;5065769;28;20153;-78
2024/01/26 00:16:08;;;;;;;72.93;35.33;;;12.70;99.90;;;;;;5052311;28;20510;-79
2024/01/26 00:18:35;;;;;;;64.18;33.15;;;13.10;99.90;;;;;;5049064;28;20045;-77
2024/01/26 00:21:01;;;;;;;58.08;31.30;;;12.90;99.90;;;;;;5051080;28;20037;-76
2024/01/26 00:23:26;;;;;;;65.88;34.95;;;12.10;99.90;;;;;;5033831;28;20055;-81
2024/01/26 00:25:52;;;;;;;72.03;36.55;;;13.00;99.90;;;;;;5062216;28;20044;-80
2024/01/26 00:28:18;;;;;;;72.28;35.60;;;12.80;99.90;;;;;;5033369;28;20081;-80
2024/01/26 00:30:43;;;;;;;68.88;34.72;;;12.90;99.90;;;;;;5067809;28;20048;-78
2024/01/26 00:33:09;;;;;;;74.75;35.58;;;12.50;99.90;;;;;;5067418;28;20041;-80
2024/01/26 00:35:35;;;;;;;74.82;38.03;;;12.00;99.90;;;;;;5050056;28;20063;-77
2024/01/26 00:38:00;;;;;;;70.63;35.72;;;12.00;99.90;;;;;;5050538;28;20029;-79
2024/01/26 00:40:26;;;;;;;68.13;34.60;;;12.20;99.90;;;;;;5050349;28;20055;-78
2024/01/26 00:42:52;;;;;;;74.45;37.38;;;13.20;99.90;;;;;;5049647;28;20048;-79
2024/01/26 00:45:17;;;;;;;74.70;38.50;;;12.00;99.90;;;;;;5046658;28;20044;-77
2024/01/26 00:47:43;;;;;;;73.07;37.58;;;13.30;99.90;;;;;;5031459;28;20044;-81
2024/01/26 00:50:09;;;;;;;77.30;38.88;;;12.50;99.90;;;;;;5054642;28;20067;-77
2024/01/26 00:52:35;;;;;;;77.80;38.10;;;13.60;99.90;;;;;;5030998;28;20123;-79
2024/01/26 00:55:01;;;;;;;70.88;38.85;;;13.30;99.90;;;;;;5049356;28;20120;-80
2024/01/26 00:57:27;;;;;;;72.80;37.90;;;12.30;99.90;;;;;;5052297;28;20225;-76
2024/01/26 00:59:52;;;;;;;74.95;39.60;;;12.50;99.90;;;;;;5066411;28;20148;-78
2024/01/26 01:02:18;;;;;;;69.53;38.17;;;13.50;99.90;;;;;;5031417;28;20131;-77
2024/01/26 01:04:44;;;;;;;67.93;37.95;;;13.70;99.90;;;;;;5048769;28;20041;-79
2024/01/26 01:07:09;;;;;;;64.80;35.78;;;13.60;99.90;;;;;;5067540;28;20115;-77
2024/01/26 01:09:38;;;;;;;65.57;35.53;;;13.10;99.90;;;;;;5052187;28;20044;-79
2024/01/26 01:12:04;;;;;;;64.60;35.92;;;13.20;99.90;;;;;;5018745;28;20124;-78
2024/01/26 01:14:30;;;;;;;63.08;35.72;;;13.80;99.90;;;;;;5027442;28;20037;-75
2024/01/26 01:16:58;;;;;;;60.63;35.88;;;13.80;99.90;;;;;;5020434;28;20028;-75
2024/01/26 01:19:24;;;;;;;62.63;36.30;;;13.80;99.90;;;;;;5071149;28;20392;-79
2024/01/26 01:21:50;;;;;;;61.22;34.65;;;13.90;99.90;;;;;;5055214;28;20048;-79
2024/01/26 01:24:15;;;;;;;61.50;35.53;;;14.00;99.90;;;;;;5050632;28;20400;-77
2024/01/26 01:26:43;;;;;;;61.20;37.30;;;13.60;99.90;;;;;;5054655;28;20041;-77
2024/01/26 01:29:08;;;;;;;61.53;34.72;;;13.00;99.90;;;;;;5053741;28;20040;-76
2024/01/26 01:31:34;;;;;;;60.45;35.63;;;13.30;99.90;;;;;;5053346;28;20381;-77
2024/01/26 01:33:59;;;;;;;61.42;35.22;;;13.90;99.90;;;;;;5018938;28;20053;-77
2024/01/26 01:36:25;;;;;;;60.17;35.15;;;12.70;99.90;;;;;;5021076;28;20041;-77
2024/01/26 01:38:51;;;;;;;53.42;33.45;;;13.00;99.90;;;;;;5047324;28;20071;-77
2024/01/26 01:41:16;;;;;;;53.08;32.75;;;12.40;99.90;;;;;;5016752;28;20045;-76
2024/01/26 01:43:42;;;;;;;52.10;31.58;;;14.00;99.90;;;;;;5051854;28;20443;-77
2024/01/26 01:46:09;;;;;;;52.60;32.03;;;13.80;99.90;;;;;;5071741;28;20040;-77
2024/01/26 01:48:35;;;;;;;50.83;31.63;;;13.80;99.90;;;;;;5053019;28;20566;-78
2024/01/26 01:51:01;;;;;;;46.22;28.88;;;14.10;99.90;;;;;;5049093;28;20044;-77
2024/01/26 01:53:28;;;;;;;45.47;29.58;;;12.60;99.90;;;;;;5036620;28;20209;-77
2024/01/26 01:55:56;;;;;;;50.35;31.42;;;12.50;99.90;;;;;;5036364;28;20114;-77
2024/01/26 01:58:22;;;;;;;46.80;28.95;;;12.90;99.90;;;;;;5070625;28;20039;-80
2024/01/26 02:00:48;;;;;;;41.50;29.08;;;14.00;99.90;;;;;;5032730;28;20091;-77
2024/01/26 02:03:14;;;;;;;43.08;28.95;;;12.50;99.90;;;;;;5035796;28;20048;-76
2024/01/26 02:05:39;;;;;;;37.92;27.83;;;12.80;99.90;;;;;;5066557;28;20054;-80
2024/01/26 02:08:05;;;;;;;39.75;27.60;;;12.90;99.90;;;;;;5040024;28;20075;-81
2024/01/26 02:10:31;;;;;;;40.15;27.88;;;12.50;99.90;;;;;;5058780;28;20385;-78
2024/01/26 02:12:57;;;;;;;35.55;27.70;;;13.10;99.90;;;;;;5044466;28;20055;-81
2024/01/26 02:15:23;;;;;;;34.78;26.73;;;12.50;99.90;;;;;;5070927;28;20040;-80
2024/01/26 02:17:48;;;;;;;36.95;27.25;;;13.90;99.90;;;;;;5064144;28;20434;-81
2024/01/26 02:20:14;;;;;;;37.75;28.60;;;12.70;99.90;;;;;;5082853;28;20037;-79
2024/01/26 02:22:40;;;;;;;37.10;27.98;;;13.00;99.90;;;;;;5047821;28;20044;-77
2024/01/26 02:25:06;;;;;;;33.22;25.83;;;12.50;99.90;;;;;;5017434;28;20059;-78
2024/01/26 02:27:33;;;;;;;33.03;26.35;;;14.50;99.90;;;;;;5069204;28;20048;-77
2024/01/26 02:29:59;;;;;;;33.88;26.95;;;14.00;99.90;;;;;;5069966;28;20049;-77
2024/01/26 02:32:24;;;;;;;32.08;27.58;;;13.20;99.90;;;;;;5014803;28;20122;-77
2024/01/26 02:34:50;;;;;;;32.55;27.08;;;14.40;99.90;;;;;;5064825;28;20045;-78
2024/01/26 02:37:15;;;;;;;34.90;28.08;;;12.60;99.90;;;;;;5046466;28;20032;-79
2024/01/26 02:39:41;;;;;;;33.80;27.75;;;14.00;99.90;;;;;;5035453;28;20046;-77
2024/01/26 02:42:07;;;;;;;34.25;27.58;;;12.60;99.90;;;;;;5052118;28;20109;-78
2024/01/26 02:44:33;;;;;;;33.05;28.23;;;14.40;99.90;;;;;;5050425;28;20085;-77
2024/01/26 02:46:59;;;;;;;34.42;26.48;;;13.10;99.90;;;;;;5035766;28;20048;-78
2024/01/26 02:49:25;;;;;;;33.92;27.65;;;13.00;99.90;;;;;;5068786;28;20040;-78
2024/01/26 02:51:50;;;;;;;33.42;28.00;;;13.00;99.90;;;;;;5052651;28;20040;-80
2024/01/26 02:54:16;;;;;;;34.40;27.70;;;12.80;99.90;;;;;;5046780;28;20687;-77
2024/01/26 02:56:42;;;;;;;32.97;27.15;;;13.20;99.90;;;;;;5035100;28;20397;-76
2024/01/26 02:59:07;;;;;;;31.42;27.00;;;14.60;99.90;;;;;;5036383;28;20039;-80
2024/01/26 03:01:33;;;;;;;34.25;28.08;;;12.90;99.90;;;;;;5052468;28;20569;-78
2024/01/26 03:03:59;;;;;;;31.58;27.38;;;14.50;99.90;;;;;;5031461;28;20060;-78
2024/01/26 03:06:25;;;;;;;33.30;27.80;;;14.40;99.90;;;;;;5057020;28;20029;-79
2024/01/26 03:08:51;;;;;;;32.38;27.58;;;14.30;99.90;;;;;;5045757;28;20484;-77
2024/01/26 03:11:17;;;;;;;32.30;26.80;;;13.70;99.90;;;;;;5069865;28;20036;-77
2024/01/26 03:13:42;;;;;;;31.60;26.85;;;14.60;99.90;;;;;;5026681;28;20036;-78
2024/01/26 03:16:09;;;;;;;31.67;26.52;;;13.70;99.90;;;;;;5034247;28;20174;-78
2024/01/26 03:18:35;;;;;;;32.88;27.27;;;14.60;99.90;;;;;;5068914;28;20055;-79
2024/01/26 03:21:01;;;;;;;32.70;26.75;;;13.80;99.90;;;;;;5052049;28;20040;-80
2024/01/26 03:23:27;;;;;;;30.65;26.75;;;14.60;99.90;;;;;;5034772;28;20089;-79
2024/01/26 03:25:53;;;;;;;34.13;26.70;;;14.40;99.90;;;;;;5017120;28;20170;-79
2024/01/26 03:28:18;;;;;;;32.00;26.15;;;14.30;99.90;;;;;;5052618;28;20494;-79
2024/01/26 03:30:44;;;;;;;32.20;26.42;;;14.70;99.90;;;;;;5034032;28;20075;-81
2024/01/26 03:33:10;;;;;;;32.00;26.58;;;13.00;99.90;;;;;;5051024;28;20071;-78
2024/01/26 03:35:36;;;;;;;31.52;26.88;;;13.00;99.90;;;;;;5041922;28;20123;-77
2024/01/26 03:38:02;;;;;;;32.17;26.83;;;14.60;99.90;;;;;;5067372;28;20041;-79
2024/01/26 03:40:29;;;;;;;32.75;26.73;;;14.70;99.90;;;;;;5051188;28;20036;-77
2024/01/26 03:42:55;;;;;;;32.92;25.98;;;13.40;99.90;;;;;;5051526;28;20048;-82
2024/01/26 03:45:20;;;;;;;33.03;26.20;;;13.20;99.90;;;;;;5047065;28;20036;-76
2024/01/26 03:47:46;;;;;;;29.55;24.63;;;14.00;99.90;;;;;;5031610;28;20048;-78
2024/01/26 03:50:12;;;;;;;31.95;24.73;;;12.90;99.90;;;;;;5084122;28;20807;-81
2024/01/26 03:52:38;;;;;;;29.65;24.67;;;13.20;99.90;;;;;;5035115;28;20127;-79
2024/01/26 03:55:06;;;;;;;30.92;25.17;;;14.80;99.90;;;;;;5050718;28;20414;-82
2024/01/26 03:57:33;;;;;;;32.33;25.55;;;13.30;99.90;;;;;;5051251;28;20101;-79
2024/01/26 03:59:59;;;;;;;27.27;20.90;;;14.30;99.90;;;;;;5051627;28;20041;-80
2024/01/26 04:02:25;;;;;;;29.48;23.95;;;14.40;99.90;;;;;;5068498;28;20037;-78
2024/01/26 04:04:51;;;;;;;30.27;23.63;;;14.60;99.90;;;;;;5017061;28;20048;-81
2024/01/26 04:07:17;;;;;;;28.15;22.65;;;14.90;99.90;;;;;;5035728;28;20048;-80
2024/01/26 04:09:42;;;;;;;27.08;22.15;;;13.90;99.90;;;;;;5049258;28;20524;-81
2024/01/26 04:12:08;;;;;;;29.25;23.08;;;13.10;99.90;;;;;;5042343;28;20045;-80
2024/01/26 04:14:34;;;;;;;32.50;23.85;;;14.40;99.90;;;;;;5025323;28;20389;-77
2024/01/26 04:16:59;;;;;;;28.90;22.55;;;14.80;99.90;;;;;;5014790;28;20044;-79
2024/01/26 04:19:25;;;;;;;29.65;22.83;;;13.40;99.90;;;;;;5094037;28;20098;-79
2024/01/26 04:21:52;;;;;;;28.83;23.05;;;13.40;99.90;;;;;;5066434;28;20036;-77
2024/01/26 04:24:18;;;;;;;29.38;23.05;;;14.60;99.90;;;;;;5051930;28;20496;-79
2024/01/26 04:26:43;;;;;;;31.58;23.80;;;13.80;99.90;;;;;;5032025;28;20032;-77
2024/01/26 04:29:09;;;;;;;29.00;23.13;;;13.50;99.90;;;;;;5051049;28;20370;-78
2024/01/26 04:31:44;;;;;;;30.30;23.50;;;13.20;99.90;;;;;;5033711;28;20385;-78
2024/01/26 04:34:10;;;;;;;31.85;24.55;;;14.80;99.90;;;;;;5030388;28;20044;-77
2024/01/26 04:36:35;;;;;;;32.10;23.80;;;14.50;99.90;;;;;;5067513;28;20036;-78
2024/01/26 04:39:02;;;;;;;30.80;24.15;;;13.20;99.90;;;;;;5035174;28;20745;-76
2024/01/26 04:41:28;;;;;;;34.42;25.40;;;15.00;99.90;;;;;;5050347;28;20537;-80
2024/01/26 04:43:55;;;;;;;30.05;23.60;;;14.30;99.90;;;;;;5048897;28;20938;-78
2024/01/26 04:46:21;;;;;;;29.67;23.70;;;14.10;99.90;;;;;;5054764;28;20048;-76
2024/01/26 04:48:46;;;;;;;33.40;25.30;;;13.30;99.90;;;;;;5072708;28;20044;-77
2024/01/26 04:51:12;;;;;;;30.13;24.23;;;15.00;99.90;;;;;;5054807;28;20052;-78
2024/01/26 04:53:38;;;;;;;32.30;24.98;;;14.20;99.90;;;;;;5067994;28;20131;-77
2024/01/26 04:56:04;;;;;;;29.05;23.70;;;15.10;99.90;;;;;;5051598;28;20049;-78
2024/01/26 04:58:29;;;;;;;32.05;24.85;;;14.00;99.90;;;;;;5034791;28;20037;-79
2024/01/26 05:00:55;;;;;;;33.05;24.50;;;13.60;99.90;;;;;;5039574;28;20079;-78
2024/01/26 05:03:21;;;;;;;29.92;24.77;;;13.30;99.90;;;;;;5054696;28;20376;-79
2024/01/26 05:05:46;;;;;;;26.13;21.67;;;15.10;99.90;;;;;;5067397;28;20358;-77
2024/01/26 05:08:12;;;;;;;27.42;22.25;;;13.80;99.90;;;;;;5067410;28;20082;-77
2024/01/26 05:10:38;;;;;;;29.35;23.05;;;15.10;99.90;;;;;;5038353;28;20131;-81
2024/01/26 05:13:04;;;;;;;27.48;22.23;;;14.80;99.90;;;;;;5019335;28;20051;-79
2024/01/26 05:15:29;;;;;;;28.65;21.48;;;14.20;99.90;;;;;;5054913;28;20138;-77
2024/01/26 05:17:55;;;;;;;27.30;21.33;;;13.60;99.90;;;;;;5054382;28;20066;-78
2024/01/26 05:20:22;;;;;;;25.92;20.55;;;14.10;99.90;;;;;;5037911;28;20040;-82
2024/01/26 05:22:48;;;;;;;23.35;19.92;;;14.60;99.90;;;;;;5035773;28;20135;-81
2024/01/26 05:25:13;;;;;;;25.25;19.95;;;15.50;99.90;;;;;;5036857;28;20198;-79
2024/01/26 05:27:41;;;;;;;23.25;20.13;;;13.60;99.90;;;;;;5035007;28;20052;-83
2024/01/26 05:30:07;;;;;;;24.75;20.27;;;13.80;99.90;;;;;;5081941;28;20560;-79
2024/01/26 05:32:33;;;;;;;24.70;20.45;;;14.40;99.90;;;;;;5038129;28;20055;-81
2024/01/26 05:34:58;;;;;;;24.20;19.40;;;14.60;99.90;;;;;;5062781;28;20041;-81
2024/01/26 05:37:24;;;;;;;22.90;19.55;;;15.80;99.90;;;;;;5067439;28;20083;-79
2024/01/26 05:39:50;;;;;;;28.80;22.20;;;15.30;99.90;;;;;;5037865;28;20043;-80
2024/01/26 05:42:15;;;;;;;26.27;22.30;;;15.50;99.90;;;;;;5038065;28;20680;-76
2024/01/26 05:44:41;;;;;;;25.10;22.40;;;15.40;99.90;;;;;;5051987;28;20044;-78
2024/01/26 05:47:07;;;;;;;30.52;22.27;;;15.90;99.90;;;;;;5053947;28;20596;-78
2024/01/26 05:49:33;;;;;;;29.23;24.42;;;14.60;99.90;;;;;;5054204;28;20040;-77
2024/01/26 05:51:59;;;;;;;28.75;23.90;;;14.70;99.90;;;;;;5037035;28;20094;-81
2024/01/26 05:54:25;;;;;;;28.35;23.33;;;14.10;99.90;;;;;;5014924;28;20343;-78
2024/01/26 05:56:50;;;;;;;28.65;23.63;;;15.20;99.90;;;;;;5067927;28;20090;-79
2024/01/26 05:59:16;;;;;;;29.63;25.48;;;14.10;99.90;;;;;;5019515;28;20036;-81
2024/01/26 06:01:42;;;;;;;29.35;24.63;;;15.60;99.90;;;;;;5069453;28;20119;-76
2024/01/26 06:04:08;;;;;;;29.42;24.70;;;14.00;99.90;;;;;;5063360;28;20040;-77
2024/01/26 06:06:36;;;;;;;28.52;23.15;;;13.80;99.90;;;;;;5066006;28;20048;-80
2024/01/26 06:09:02;;;;;;;27.55;24.52;;;13.70;99.90;;;;;;5052805;28;20040;-79
2024/01/26 06:11:28;;;;;;;26.42;23.63;;;14.00;99.90;;;;;;5018257;28;20199;-78
2024/01/26 06:13:54;;;;;;;26.55;23.80;;;15.40;99.90;;;;;;5044992;28;20051;-79
2024/01/26 06:16:19;;;;;;;25.77;22.85;;;15.70;99.90;;;;;;5035391;28;20696;-78
2024/01/26 06:18:45;;;;;;;28.52;23.80;;;15.30;99.90;;;;;;5069775;28;20040;-77
2024/01/26 06:21:11;;;;;;;28.50;22.75;;;13.80;99.90;;;;;;5052640;28;20079;-76
2024/01/26 06:23:38;;;;;;;25.00;21.92;;;13.70;99.90;;;;;;5048190;28;20045;-77
2024/01/26 06:26:04;;;;;;;24.17;21.48;;;14.10;99.90;;;;;;5068716;28;20043;-78
2024/01/26 06:28:29;;;;;;;25.15;22.55;;;15.10;99.90;;;;;;5067803;28;20040;-77
2024/01/26 06:30:56;;;;;;;24.83;21.92;;;14.20;99.90;;;;;;5070627;28;20102;-79
2024/01/26 06:33:22;;;;;;;24.75;21.60;;;15.80;99.90;;;;;;5050146;28;20052;-78
2024/01/26 06:35:48;;;;;;;27.05;22.67;;;13.90;99.90;;;;;;5062470;28;20258;-76
2024/01/26 06:38:13;;;;;;;24.40;21.77;;;14.10;99.90;;;;;;5051673;28;20047;-80
2024/01/26 06:40:40;;;;;;;24.83;22.13;;;14.40;99.90;;;;;;5050448;28;20049;-80
2024/01/26 06:43:08;;;;;;;28.50;23.58;;;14.20;99.90;;;;;;5052349;28;20048;-79
2024/01/26 06:45:34;;;;;;;26.88;22.88;;;15.20;99.90;;;;;;5028257;28;20440;-80
2024/01/26 06:48:00;;;;;;;25.58;22.77;;;16.20;99.90;;;;;;5036996;28;20040;-79
2024/01/26 06:50:27;;;;;;;25.23;21.30;;;15.30;99.90;;;;;;5068379;28;20040;-83
2024/01/26 06:52:52;;;;;;;26.73;22.98;;;14.40;99.90;;;;;;5052555;28;20047;-78
2024/01/26 06:55:18;;;;;;;30.25;21.98;;;14.00;99.90;;;;;;5068189;28;20059;-80
2024/01/26 06:57:44;;;;;;;27.45;22.52;;;15.80;99.90;;;;;;5052387;28;20062;-77
2024/01/26 07:00:10;;;;;;;28.73;22.73;;;14.80;99.90;;;;;;5049507;28;20479;-76
2024/01/26 07:02:36;;;;;;;25.23;20.40;;;16.40;99.90;;;;;;5049801;28;20431;-79
2024/01/26 07:05:02;;;;;;;29.50;21.48;;;16.00;99.90;;;;;;5044440;28;20455;-75
2024/01/26 07:07:28;;;;;;;26.08;19.92;;;14.00;99.90;;;;;;5043016;28;20044;-80
2024/01/26 07:09:54;;;;;;;26.92;20.48;;;16.10;99.90;;;;;;5051168;28;20080;-75
2024/01/26 07:12:19;;;;;;;25.23;18.92;;;16.60;99.90;;;;;;5061564;28;20041;-77
2024/01/26 07:14:45;;;;;;;23.90;17.58;;;16.10;99.90;;;;;;5040403;28;20038;-75
2024/01/26 07:17:10;;;;;;;20.83;17.73;;;16.70;99.90;;;;;;5078149;28;20052;-74
2024/01/26 07:19:36;;;;;;;22.05;16.23;;;15.70;99.90;;;;;;5053096;28;20098;-75
2024/01/26 07:22:02;;;;;;;19.25;15.70;;;16.70;99.90;;;;;;5068069;28;20032;-79
2024/01/26 07:24:28;;;;;;;18.55;15.27;;;15.90;99.90;;;;;;5070115;28;20037;-76
2024/01/26 07:26:54;;;;;;;17.13;14.55;;;14.70;99.90;;;;;;5037249;28;20128;-78
2024/01/26 07:29:19;;;;;;;17.35;14.10;;;16.30;99.90;;;;;;5052737;28;20056;-80
2024/01/26 07:31:46;;;;;;;15.98;12.40;;;16.60;99.90;;;;;;5069081;28;20132;-76
2024/01/26 07:34:12;;;;;;;13.85;12.35;;;13.70;99.90;;;;;;5045295;28;20044;-77
2024/01/26 07:36:38;;;;;;;13.80;12.23;;;14.00;99.90;;;;;;5066874;28;20078;-81
2024/01/26 07:39:05;;;;;;;13.93;12.20;;;16.80;99.90;;;;;;5050416;28;20044;-78
2024/01/26 07:41:31;;;;;;;15.02;12.02;;;15.50;99.90;;;;;;5069348;28;20056;-75
2024/01/26 07:43:57;;;;;;;12.55;11.18;;;13.40;99.90;;;;;;5065302;28;20040;-79
2024/01/26 07:46:23;;;;;;;12.07;10.40;;;16.70;99.90;;;;;;5072443;28;20040;-77
2024/01/26 07:48:48;;;;;;;12.45;10.10;;;14.20;99.90;;;;;;5032620;28;20068;-77
2024/01/26 07:51:14;;;;;;;9.65;8.63;;;14.40;99.90;;;;;;5085313;28;20040;-79
2024/01/26 07:53:40;;;;;;;11.57;9.13;;;13.40;99.90;;;;;;5052455;28;20048;-76
2024/01/26 07:56:06;;;;;;;10.73;9.63;;;16.50;99.90;;;;;;5035492;28;20044;-78
2024/01/26 07:58:32;;;;;;;10.80;9.40;;;16.40;99.90;;;;;;5032495;28;20073;-76
2024/01/26 08:00:58;;;;;;;10.23;9.10;;;13.60;99.90;;;;;;5069070;28;20271;-76
2024/01/26 08:03:23;;;;;;;11.02;9.88;;;15.20;99.90;;;;;;5069258;28;20040;-79
2024/01/26 08:05:49;;;;;;;10.77;9.68;;;16.00;99.90;;;;;;5051443;28;20052;-75
2024/01/26 08:08:15;;;;;;;10.50;9.40;;;16.50;99.90;;;;;;5051885;28;20044;-77
2024/01/26 08:10:40;;;;;;;11.10;9.20;;;14.50;99.90;;;;;;5052249;28;20060;-75
2024/01/26 08:13:06;;;;;;;10.40;9.32;;;16.00;99.90;;;;;;5052277;28;20496;-79
2024/01/26 08:15:32;;;;;;;11.65;9.10;;;16.40;99.90;;;;;;5063265;28;20029;-79
2024/01/26 08:17:58;;;;;;;10.43;8.98;;;16.50;99.90;;;;;;5067623;28;20158;-77
2024/01/26 08:20:23;;;;;;;10.88;8.88;;;14.60;99.90;;;;;;5051289;28;20043;-78
2024/01/26 08:22:49;;;;;;;9.90;8.63;;;15.20;99.90;;;;;;5051864;28;20098;-80
2024/01/26 08:25:15;;;;;;;10.65;8.25;;;16.00;99.90;;;;;;5050635;28;20048;-77
2024/01/26 08:27:40;;;;;;;8.32;6.90;;;16.80;99.90;;;;;;5068284;28;20041;-77
2024/01/26 08:30:06;;;;;;;7.85;6.72;;;13.70;99.90;;;;;;5036177;28;20178;-80
2024/01/26 08:32:32;;;;;;;6.82;6.13;;;14.40;99.90;;;;;;5051704;28;20127;-79
2024/01/26 08:34:58;;;;;;;7.88;6.50;;;13.80;99.90;;;;;;5068278;28;20583;-79
2024/01/26 08:37:24;;;;;;;7.43;6.35;;;14.70;99.90;;;;;;5048955;28;20078;-76
2024/01/26 08:39:49;;;;;;;6.53;5.90;;;16.00;99.90;;;;;;5051646;28;20060;-82
2024/01/26 08:42:15;;;;;;;6.47;5.80;;;14.10;99.90;;;;;;5067439;28;20135;-75
2024/01/26 08:44:41;;;;;;;7.28;5.45;;;16.40;99.90;;;;;;5035379;28;20618;-80
2024/01/26 08:47:06;;;;;;;6.18;5.30;;;14.10;99.90;;;;;;5063416;28;20036;-76
2024/01/26 08:49:32;;;;;;;6.82;5.95;;;16.50;99.90;;;;;;5066911;28;20043;-77
2024/01/26 08:51:58;;;;;;;6.85;5.30;;;13.90;99.90;;;;;;5068459;28;20048;-79
2024/01/26 08:54:24;;;;;;;5.18;4.55;;;15.30;99.90;;;;;;5051295;28;20040;-77
2024/01/26 08:56:50;;;;;;;7.78;5.82;;;16.10;99.90;;;;;;5050645;28;20047;-77
2024/01/26 08:59:16;;;;;;;11.55;6.35;;;16.10;99.90;;;;;;5067133;28;20040;-78
2024/01/26 09:01:42;;;;;;;9.05;6.47;;;13.90;99.90;;;;;;5068665;28;20044;-77
2024/01/26 09:04:08;;;;;;;10.40;7.78;;;16.70;99.90;;;;;;5068074;28;20042;-78
2024/01/26 09:06:37;;;;;;;11.38;8.13;;;13.50;99.90;;;;;;5050849;28;20231;-77
2024/01/26 09:09:04;;;;;;;11.43;7.95;;;16.70;99.90;;;;;;5051070;28;20049;-79
2024/01/26 09:11:30;;;;;;;11.77;7.68;;;13.50;99.90;;;;;;5067878;28;20044;-78
2024/01/26 09:13:56;;;;;;;18.40;8.50;;;13.90;99.90;;;;;;5068013;28;20060;-78
2024/01/26 09:16:22;;;;;;;17.42;8.35;;;15.80;99.90;;;;;;5067740;28;20050;-80
2024/01/26 09:18:48;;;;;;;10.68;6.63;;;16.30;99.90;;;;;;5062422;28;20754;-79
2024/01/26 09:21:14;;;;;;;14.27;5.90;;;16.10;99.90;;;;;;5034310;28;20033;-76
2024/01/26 09:23:40;;;;;;;11.23;5.25;;;13.20;99.90;;;;;;5067923;28;20538;-77
2024/01/26 09:26:06;;;;;;;6.45;2.20;;;16.50;99.90;;;;;;5015118;28;20132;-80
2024/01/26 09:28:31;;;;;;;3.75;1.35;;;14.90;99.90;;;;;;5054663;28;20476;-79
2024/01/26 09:30:57;;;;;;;4.45;1.17;;;13.60;99.90;;;;;;5063530;28;20127;-81
2024/01/26 09:33:23;;;;;;;3.97;1.48;;;12.70;99.90;;;;;;5058643;28;20107;-80
2024/01/26 09:35:49;;;;;;;3.90;1.10;;;13.40;99.90;;;;;;5038215;28;20039;-76
2024/01/26 09:38:15;;;;;;;3.33;1.40;;;14.10;99.90;;;;;;5082678;28;20036;-79
2024/01/26 09:40:42;;;;;;;4.22;1.40;;;13.00;99.90;;;;;;5071030;28;20121;-76
2024/01/26 09:43:08;;;;;;;5.10;1.58;;;14.30;99.90;;;;;;5054519;28;20091;-79
2024/01/26 09:45:34;;;;;;;3.83;1.30;;;12.40;99.90;;;;;;5053096;28;20068;-77
2024/01/26 09:48:04;;;;;;;4.95;1.40;;;13.30;99.90;;;;;;5052602;28;20041;-79
2024/01/26 09:50:31;;;;;;;5.93;1.70;;;12.30;99.90;;;;;;5065415;28;20407;-78
2024/01/26 09:53:00;;;;;;;7.28;2.05;;;13.90;99.90;;;;;;5080670;28;20051;-77
2024/01/26 09:55:26;;;;;;;6.85;2.20;;;14.40;99.90;;;;;;5054075;28;20040;-75
2024/01/26 09:57:55;;;;;;;8.82;2.95;;;14.70;99.90;;;;;;5054366;28;20570;-79
2024/01/26 10:00:21;;;;;;;10.80;3.10;;;11.50;99.90;;;;;;5051824;28;20440;-81
2024/01/26 10:02:47;;;;;;;13.02;3.33;;;14.60;99.90;;;;;;5029210;28;20045;-79
2024/01/26 10:05:16;;;;;;;14.20;3.42;;;14.50;99.90;;;;;;5051686;28;20086;-79
2024/01/26 10:07:44;;;;;;;12.50;3.25;;;13.80;99.90;;;;;;5039252;28;20059;-80
2024/01/26 10:10:10;;;;;;;17.88;4.03;;;14.60;99.90;;;;;;5039326;28;20562;-78
2024/01/26 10:12:36;;;;;;;15.65;3.78;;;12.50;99.90;;;;;;5045494;28;20103;-77
2024/01/26 10:15:04;;;;;;;13.80;3.50;;;14.30;99.90;;;;;;5052482;28;20047;-80
2024/01/26 10:17:29;;;;;;;17.55;4.28;;;13.20;99.90;;;;;;5052726;28;20079;-77
2024/01/26 10:20:14;;;;;;;19.75;4.65;;;13.70;99.90;;;;;;5065944;28;20060;-79
2024/01/26 10:22:44;;;;;;;16.58;4.10;;;11.70;99.90;;;;;;5058862;28;21187;-79
2024/01/26 10:25:10;;;;;;;22.23;3.78;;;13.70;99.90;;;;;;5059957;28;20048;-80
2024/01/26 10:27:36;;;;;;;16.63;4.40;;;13.30;99.90;;;;;;5047650;28;20051;-78
2024/01/26 10:30:03;;;;;;;26.58;5.35;;;12.30;99.90;;;;;;5068026;28;20040;-77
2024/01/26 10:32:30;;;;;;;15.32;3.45;;;13.90;99.90;;;;;;5053356;28;20409;-81
2024/01/26 10:35:09;;;;;;;16.67;3.45;;;11.60;99.90;;;;;;5068571;28;20115;-83
2024/01/26 10:37:35;;;;;;;18.98;3.85;;;13.60;99.90;;;;;;5068752;28;20060;-84
2024/01/26 10:40:06;;;;;;;16.65;3.90;;;11.10;99.90;;;;;;5037298;28;20055;-80
2024/01/26 10:42:32;;;;;;;16.30;3.58;;;11.70;99.90;;;;;;5052480;28;20057;-83
2024/01/26 10:45:00;;;;;;;14.38;3.75;;;13.60;99.90;;;;;;5071129;28;20451;-86
2024/01/26 10:47:26;;;;;;;19.80;4.07;;;12.10;99.90;;;;;;5065754;28;20036;-84
2024/01/26 10:49:57;;;;;;;22.23;4.85;;;13.40;99.90;;;;;;5069468;28;20036;-83
2024/01/26 10:52:23;;;;;;;22.40;4.72;;;11.90;99.90;;;;;;5053039;28;20040;-81
2024/01/26 10:54:50;;;;;;;13.45;3.63;;;11.90;99.90;;;;;;5053035;28;20036;-82
2024/01/26 10:57:19;;;;;;;18.55;4.50;;;11.50;99.90;;;;;;5051669;28;20122;-81
2024/01/26 10:59:46;;;;;;;20.95;4.38;;;11.20;99.90;;;;;;5052820;28;20040;-85
2024/01/26 11:02:31;;;;;;;25.60;4.95;;;13.60;99.90;;;;;;5034513;28;20096;-85
2024/01/26 11:04:58;;;;;;;17.65;5.20;;;13.70;99.90;;;;;;5055721;28;20106;-83
2024/01/26 11:07:25;;;;;;;16.73;3.90;;;11.60;99.90;;;;;;5053322;28;20072;-81
2024/01/26 11:09:52;;;;;;;18.15;3.97;;;13.00;99.90;;;;;;5069562;28;20047;-86
2024/01/26 11:12:22;;;;;;;20.10;4.25;;;11.30;99.90;;;;;;5052605;28;20477;-82
2024/01/26 11:15:06;;;;;;;18.52;4.03;;;13.10;99.90;;;;;;5052771;28;20067;-83
2024/01/26 11:17:52;;;;;;;25.58;5.78;;;11.80;99.90;;;;;;5050779;28;20097;-80
2024/01/26 11:20:29;;;;;;;15.38;3.90;;;12.30;99.90;;;;;;5058655;28;20120;-84
2024/01/26 11:23:11;;;;;;;16.45;3.97;;;11.70;99.90;;;;;;5052938;28;20059;-83
2024/01/26 11:25:49;;;;;;;15.95;4.03;;;13.20;99.90;;;;;;5067690;28;20048;-82
2024/01/26 11:28:17;;;;;;;19.08;4.45;;;13.40;99.90;;;;;;5054339;28;20374;-82
2024/01/26 11:30:53;;;;;;;14.15;3.83;;;13.40;99.90;;;;;;5084871;28;20041;-84
2024/01/26 11:33:23;;;;;;;17.38;4.30;;;11.50;99.90;;;;;;5054847;28;20036;-86
2024/01/26 11:35:50;;;;;;;16.10;3.65;;;11.40;99.90;;;;;;5030056;28;20079;-84
2024/01/26 11:38:18;;;;;;;14.57;3.38;;;11.80;99.90;;;;;;5053266;28;20443;-82
2024/01/26 11:40:45;;;;;;;15.48;3.55;;;12.10;99.90;;;;;;5052946;28;20563;-82
2024/01/26 11:43:12;;;;;;;15.82;3.92;;;12.30;99.90;;;;;;5033043;28;20398;-86
2024/01/26 11:45:46;;;;;;;19.83;4.95;;;12.50;99.90;;;;;;5043290;28;20129;-82
2024/01/26 11:48:13;;;;;;;20.85;4.45;;;11.80;99.90;;;;;;5052650;28;20043;-85
2024/01/26 11:50:44;;;;;;;19.25;4.30;;;12.90;99.90;;;;;;5052184;28;20106;-85
2024/01/26 11:53:10;;;;;;;18.10;3.95;;;12.10;99.90;;;;;;5052871;28;20048;-83
2024/01/26 11:55:39;;;;;;;18.58;4.85;;;12.80;99.90;;;;;;5049383;28;20166;-84
2024/01/26 11:58:06;;;;;;;17.00;3.75;;;12.80;99.90;;;;;;5052687;28;20036;-84
2024/01/26 12:00:32;;;;;;;19.05;4.25;;;12.10;99.90;;;;;;5052343;28;20361;-83
2024/01/26 12:02:58;;;;;;;21.55;4.80;;;12.60;99.90;;;;;;5053013;28;20116;-86
2024/01/26 12:05:26;;;;;;;18.27;4.28;;;12.20;99.90;;;;;;5051661;28;20045;-86
2024/01/26 12:07:51;;;;;;;19.52;4.72;;;12.10;99.90;;;;;;5032688;28;20037;-85
2024/01/26 12:10:17;;;;;;;20.90;5.15;;;12.80;99.90;;;;;;5030066;28;20596;-88
2024/01/26 12:12:47;;;;;;;20.60;4.55;;;11.70;99.90;;;;;;5052174;28;20070;-84
2024/01/26 12:15:13;;;;;;;24.27;5.18;;;11.60;99.90;;;;;;5069836;28;20072;-82
2024/01/26 12:17:39;;;;;;;19.75;4.80;;;12.60;99.90;;;;;;5051874;28;20388;-83
2024/01/26 12:20:08;;;;;;;26.17;5.28;;;11.30;99.90;;;;;;5068653;28;20036;-83
2024/01/26 12:22:37;;;;;;;25.42;5.05;;;12.40;99.90;;;;;;5035588;28;20132;-82
2024/01/26 12:25:05;;;;;;;27.52;5.85;;;11.50;99.90;;;;;;5068542;28;20079;-83
2024/01/26 12:27:31;;;;;;;23.85;5.50;;;11.10;99.90;;;;;;5065568;28;20052;-84